This is the latest recevied weather packets stored in our database for station/object NO3U. If no packets are shown the sender has not sent any weather packets the latest 1 day(s).
| Time | Temp. | Humidity | Pressure | Rain* | Wind** | Luminosity | Snow |
|---|---|---|---|---|---|---|---|
| 1778027769 | 20° C | 60% | 1007.5 hPa | 0 mm | - | 0 W/m² | - |
| 1778027465 | 20° C | 64% | 1007.5 hPa | 0 mm | - | 1 W/m² | - |
| 1778026857 | 20° C | 66% | 1007.6 hPa | 0 mm | - | 2 W/m² | - |
| 1778026251 | 19.44° C | 68% | 1007.9 hPa | 0 mm | - | 4 W/m² | - |
| 1778024434 | 21.11° C | 59% | 1007.4 hPa | 0 mm | - | 16 W/m² | - |
| 1778023829 | 21.11° C | 58% | 1007.6 hPa | 0 mm | - | 20 W/m² | - |
| 1778023224 | 21.11° C | 60% | 1007.7 hPa | 0 mm | - | 20 W/m² | - |
| 1778020800 | 21.67° C | 56% | 1008 hPa | 0 mm | - | 48 W/m² | - |
| 1778020193 | 21.67° C | 57% | 1007.8 hPa | 0 mm | - | 63 W/m² | - |
| 1778018374 | 22.22° C | 55% | 1008 hPa | 0 mm | - | 89 W/m² | - |
| 1778016862 | 22.78° C | 55% | 1007.8 hPa | 0 mm | - | 133 W/m² | - |
| 1778016558 | 22.78° C | 55% | 1007.8 hPa | 0 mm | - | 146 W/m² | - |
| 1778014134 | 22.22° C | 55% | 1007.7 hPa | 0 mm | - | 202 W/m² | - |
| 1778013832 | 22.22° C | 57% | 1007.8 hPa | 0 mm | - | 196 W/m² | - |
| 1778013529 | 22.22° C | 55% | 1007.9 hPa | 0 mm | - | 141 W/m² | - |
| 1778012922 | 22.22° C | 56% | 1008 hPa | 0 mm | - | 162 W/m² | - |
| 1778012618 | 22.22° C | 56% | 1007.9 hPa | 0 mm | - | 156 W/m² | - |
| 1778011407 | 21.67° C | 56% | 1008.3 hPa | 0 mm | - | 142 W/m² | - |
| 1778010800 | 21.67° C | 58% | 1008.3 hPa | 0 mm | - | 107 W/m² | - |
| 1778010497 | 21.67° C | 58% | 1008.6 hPa | 0 mm | - | 124 W/m² | - |
| 1778008075 | 21.67° C | 55% | 1008.7 hPa | 0 mm | - | 69 W/m² | - |
| 1778007770 | 22.22° C | 54% | 1008.9 hPa | 0 mm | - | 85 W/m² | - |
| 1778005951 | 22.78° C | 49% | 1008.8 hPa | 0 mm | - | 170 W/m² | - |
| 1778005647 | 22.78° C | 50% | 1008.7 hPa | 0 mm | - | 229 W/m² | - |
| 1778005344 | 23.33° C | 50% | 1008.7 hPa | 0 mm | - | 299 W/m² | - |
* Rain latest hour (hover to see other rain measurements)
** Current wind speed in m/s (hover to see current wind gust speed)